createdAt,value
2019-01-27T00:00:32.739Z,5.43
2019-01-27T00:03:00.911Z,6.63
2019-01-27T00:05:29.053Z,4.87
2019-01-27T00:07:57.184Z,3.70
2019-01-27T00:10:25.448Z,5.57
2019-01-27T00:12:53.576Z,7.10
2019-01-27T00:15:21.715Z,4.83
2019-01-27T00:17:49.866Z,5.03
2019-01-27T00:20:19.563Z,5.00
2019-01-27T00:22:47.700Z,7.10
2019-01-27T00:25:15.868Z,5.63
2019-01-27T00:27:44.018Z,4.83
2019-01-27T00:30:13.775Z,7.27
2019-01-27T00:32:41.948Z,6.30
2019-01-27T00:35:10.080Z,6.13
2019-01-27T00:37:38.330Z,8.63
2019-01-27T00:40:08.487Z,7.17
2019-01-27T00:42:45.708Z,5.10
2019-01-27T00:45:15.473Z,5.07
2019-01-27T00:47:43.589Z,4.87
2019-01-27T00:50:13.093Z,5.57
2019-01-27T00:52:41.258Z,6.27
2019-01-27T00:55:11.015Z,4.70
2019-01-27T00:57:39.143Z,7.63
2019-01-27T01:00:11.827Z,6.30
2019-01-27T01:02:40.081Z,4.30
2019-01-27T01:05:09.191Z,6.10
2019-01-27T01:07:37.518Z,6.63
2019-01-27T01:10:10.396Z,6.10
2019-01-27T01:12:38.539Z,4.93
2019-01-27T01:15:08.496Z,7.83
2019-01-27T01:17:36.628Z,5.70
2019-01-27T01:20:09.091Z,7.97
2019-01-27T01:22:37.263Z,5.97
2019-01-27T01:25:07.015Z,4.83
2019-01-27T01:27:35.147Z,5.87
2019-01-27T01:30:04.447Z,5.30
2019-01-27T01:32:32.576Z,6.70
2019-01-27T01:35:00.703Z,10.40
2019-01-27T01:37:28.871Z,8.43
2019-01-27T01:39:57.120Z,4.43
2019-01-27T01:42:25.255Z,5.63
2019-01-27T01:44:53.419Z,5.37
2019-01-27T01:47:21.667Z,4.90
2019-01-27T01:49:49.799Z,4.03
2019-01-27T01:52:17.981Z,8.33
2019-01-27T01:54:46.103Z,8.03
2019-01-27T01:57:14.232Z,4.93
2019-01-27T01:59:42.384Z,7.37
2019-01-27T02:02:10.516Z,5.87
2019-01-27T02:04:38.639Z,6.63
2019-01-27T02:07:06.811Z,7.23
2019-01-27T02:09:34.944Z,6.07
2019-01-27T02:12:03.075Z,6.33
2019-01-27T02:14:31.244Z,6.93
2019-01-27T02:16:59.383Z,7.47
2019-01-27T02:19:27.519Z,9.20
2019-01-27T02:21:55.679Z,6.40
2019-01-27T02:24:23.807Z,8.60
2019-01-27T02:26:51.944Z,6.57
2019-01-27T02:29:20.110Z,8.03
2019-01-27T02:31:48.239Z,5.67
2019-01-27T02:34:16.368Z,7.60
2019-01-27T02:36:44.860Z,7.67
2019-01-27T02:39:12.976Z,8.73
2019-01-27T02:41:41.103Z,7.23
2019-01-27T02:44:09.264Z,10.07
2019-01-27T02:46:37.400Z,8.37
2019-01-27T02:49:05.651Z,6.03
2019-01-27T02:51:33.802Z,7.33
2019-01-27T02:54:01.931Z,5.43
2019-01-27T02:56:30.313Z,12.57
2019-01-27T02:58:58.467Z,12.03
2019-01-27T03:01:26.771Z,11.23
2019-01-27T03:03:54.907Z,13.30
2019-01-27T03:06:24.717Z,11.27
2019-01-27T03:08:53.128Z,6.83
2019-01-27T03:11:21.256Z,6.93
2019-01-27T03:13:49.413Z,9.67
2019-01-27T03:16:17.552Z,9.57
2019-01-27T03:18:45.680Z,12.07
2019-01-27T03:21:13.860Z,12.13
2019-01-27T03:23:42.172Z,11.90
2019-01-27T03:26:10.310Z,11.63
2019-01-27T03:28:38.475Z,13.83
2019-01-27T03:31:06.601Z,14.23
2019-01-27T03:33:34.729Z,5.93
2019-01-27T03:36:02.894Z,11.43
2019-01-27T03:38:31.020Z,14.43
2019-01-27T03:40:59.147Z,10.20
2019-01-27T03:43:27.311Z,15.80
2019-01-27T03:45:55.440Z,10.83
2019-01-27T03:48:23.571Z,15.13
2019-01-27T03:50:51.723Z,11.00
2019-01-27T03:53:19.852Z,9.83
2019-01-27T03:55:47.987Z,9.77
2019-01-27T03:58:16.152Z,9.20
2019-01-27T04:00:44.271Z,8.73
2019-01-27T04:03:12.400Z,5.57
2019-01-27T04:05:40.559Z,11.60
2019-01-27T04:08:09.002Z,6.90
2019-01-27T04:10:37.128Z,9.57
2019-01-27T04:13:05.287Z,9.90
2019-01-27T04:15:33.419Z,13.43
2019-01-27T04:18:01.558Z,8.90
2019-01-27T04:20:29.708Z,6.97
2019-01-27T04:22:57.960Z,12.50
2019-01-27T04:25:27.661Z,7.90
2019-01-27T04:27:55.840Z,11.00
2019-01-27T04:30:28.967Z,12.60
2019-01-27T04:32:57.119Z,11.23
2019-01-27T04:35:25.294Z,11.20
2019-01-27T04:37:53.539Z,7.83
2019-01-27T04:40:22.436Z,9.90
2019-01-27T04:42:50.604Z,8.57
2019-01-27T04:45:20.379Z,13.77
2019-01-27T04:47:48.511Z,12.13
2019-01-27T04:50:16.670Z,8.83
2019-01-27T04:52:44.803Z,16.93
2019-01-27T04:55:14.201Z,8.87
2019-01-27T04:57:42.353Z,14.17
2019-01-27T05:00:12.117Z,15.63
2019-01-27T05:02:41.891Z,12.53
2019-01-27T05:05:11.130Z,15.73
2019-01-27T05:07:39.270Z,15.03
2019-01-27T05:10:09.067Z,12.23
2019-01-27T05:12:37.223Z,16.10
2019-01-27T05:15:09.902Z,10.43
2019-01-27T05:17:38.043Z,15.37
2019-01-27T05:20:08.005Z,10.00
2019-01-27T05:22:36.132Z,9.43
2019-01-27T05:25:05.979Z,9.03
2019-01-27T05:27:34.142Z,12.20
2019-01-27T05:30:02.268Z,9.30
2019-01-27T05:32:30.405Z,12.50
2019-01-27T05:34:58.573Z,11.10
2019-01-27T05:37:26.707Z,16.00
2019-01-27T05:39:54.842Z,12.50
2019-01-27T05:42:23.005Z,11.07
2019-01-27T05:44:51.140Z,15.63
2019-01-27T05:47:19.272Z,16.63
2019-01-27T05:49:47.446Z,14.70
2019-01-27T05:52:15.564Z,12.57
2019-01-27T05:54:43.694Z,7.97
2019-01-27T05:57:11.859Z,11.40
2019-01-27T05:59:40.017Z,13.13
2019-01-27T06:02:08.160Z,13.73
2019-01-27T06:04:36.315Z,12.93
2019-01-27T06:07:04.440Z,11.83
2019-01-27T06:09:32.575Z,7.97
2019-01-27T06:12:01.008Z,9.57
2019-01-27T06:14:29.140Z,10.30
2019-01-27T06:16:57.280Z,9.93
2019-01-27T06:19:25.719Z,9.93
2019-01-27T06:21:53.861Z,12.50
2019-01-27T06:24:22.004Z,14.77
2019-01-27T06:26:50.155Z,9.07
2019-01-27T06:29:18.283Z,9.60
2019-01-27T06:31:46.416Z,7.20
2019-01-27T06:34:14.595Z,9.27
2019-01-27T06:36:42.727Z,10.50
2019-01-27T06:39:10.869Z,9.70
2019-01-27T06:41:39.047Z,8.90
2019-01-27T06:44:07.183Z,12.00
2019-01-27T06:46:35.315Z,6.87
2019-01-27T06:49:03.467Z,7.93
2019-01-27T06:51:31.603Z,13.27
2019-01-27T06:53:59.759Z,16.67
2019-01-27T06:56:27.920Z,11.23
2019-01-27T06:58:57.717Z,13.53
2019-01-27T07:01:27.488Z,8.27
2019-01-27T07:03:57.291Z,12.87
2019-01-27T07:06:27.068Z,7.80
2019-01-27T07:08:56.837Z,9.60
2019-01-27T07:11:26.636Z,10.53
2019-01-27T07:14:02.489Z,8.43
2019-01-27T07:16:38.440Z,11.57
2019-01-27T07:19:17.227Z,11.37
2019-01-27T07:21:55.811Z,12.43
2019-01-27T07:24:25.583Z,9.03
2019-01-27T07:26:58.512Z,9.50
2019-01-27T07:29:44.507Z,14.63
2019-01-27T07:32:14.293Z,8.00
2019-01-27T07:35:02.012Z,9.47
2019-01-27T07:37:31.784Z,9.60
2019-01-27T07:40:01.555Z,8.48
2019-01-27T07:42:46.671Z,5.93
2019-01-27T07:45:22.147Z,6.53
2019-01-27T07:48:01.024Z,6.17
2019-01-27T07:50:30.911Z,9.23
2019-01-27T07:53:03.433Z,9.10
2019-01-27T07:55:33.243Z,9.87
2019-01-27T07:58:06.059Z,7.47
2019-01-27T08:00:35.837Z,8.77
2019-01-27T08:03:11.778Z,8.60
2019-01-27T08:05:37.052Z,7.87
2019-01-27T08:08:06.824Z,5.90
2019-01-27T08:10:39.623Z,7.37
2019-01-27T08:13:09.487Z,6.73
2019-01-27T08:15:48.231Z,4.93
2019-01-27T08:18:20.043Z,5.50
2019-01-27T08:20:49.813Z,6.83
2019-01-27T08:23:19.616Z,7.27
2019-01-27T08:25:55.267Z,7.67
2019-01-27T08:28:36.994Z,5.03
2019-01-27T08:31:24.971Z,5.37
2019-01-27T08:33:54.767Z,8.73
2019-01-27T08:36:39.538Z,8.33
2019-01-27T08:39:15.035Z,4.10
2019-01-27T08:42:01.347Z,10.93
2019-01-27T08:44:49.133Z,8.87
2019-01-27T08:47:17.332Z,7.47
2019-01-27T08:49:45.464Z,8.33
2019-01-27T08:52:13.635Z,3.20
2019-01-27T08:54:41.772Z,6.53
2019-01-27T08:57:09.909Z,8.57
2019-01-27T08:59:38.063Z,12.73
2019-01-27T09:02:22.879Z,9.17
2019-01-27T09:04:55.820Z,7.10
2019-01-27T09:07:34.555Z,7.40
2019-01-27T09:10:13.580Z,8.53
2019-01-27T09:12:43.349Z,6.93
2019-01-27T09:15:22.080Z,6.30
2019-01-27T09:17:51.860Z,10.67
2019-01-27T09:20:21.631Z,8.37
2019-01-27T09:22:57.524Z,14.07
2019-01-27T09:25:33.447Z,13.80
2019-01-27T09:28:15.389Z,11.27
2019-01-27T09:30:48.175Z,15.40
2019-01-27T09:33:34.420Z,19.50
2019-01-27T09:36:04.197Z,17.63
2019-01-27T09:38:33.991Z,21.53
2019-01-27T09:41:12.375Z,22.07
2019-01-27T09:43:57.510Z,20.37
2019-01-27T09:46:27.311Z,16.90
2019-01-27T09:48:57.087Z,16.13
2019-01-27T09:51:30.006Z,18.53
2019-01-27T09:53:59.826Z,23.43
2019-01-27T09:56:41.736Z,21.17
2019-01-27T09:59:11.544Z,24.17
2019-01-27T10:01:44.095Z,23.03
2019-01-27T10:04:13.867Z,19.37
2019-01-27T10:06:56.044Z,16.90
2019-01-27T10:09:38.167Z,22.03
2019-01-27T10:12:07.975Z,18.20
2019-01-27T10:14:53.143Z,21.63
2019-01-27T10:17:29.034Z,16.87
2019-01-27T10:20:01.580Z,12.37
2019-01-27T10:22:31.353Z,12.97
2019-01-27T10:25:07.442Z,8.83
2019-01-27T10:27:43.145Z,14.30
2019-01-27T10:30:17.216Z,15.10
2019-01-27T10:32:53.091Z,13.40
2019-01-27T10:35:25.660Z,14.87
2019-01-27T10:37:58.451Z,11.77
2019-01-27T10:40:39.843Z,17.77
2019-01-27T10:43:05.480Z,10.93
2019-01-27T10:45:38.292Z,12.37
2019-01-27T10:48:10.819Z,14.67
2019-01-27T10:50:46.414Z,13.60
2019-01-27T10:53:20.791Z,14.63
2019-01-27T10:55:47.607Z,20.33
2019-01-27T10:58:26.611Z,11.60
2019-01-27T11:00:59.711Z,19.77
2019-01-27T11:03:29.471Z,25.30
2019-01-27T11:06:08.407Z,16.60
2019-01-27T11:08:38.184Z,20.50
2019-01-27T11:11:15.117Z,28.13
2019-01-27T11:13:48.360Z,21.57
2019-01-27T11:16:18.135Z,21.33
2019-01-27T11:19:04.554Z,14.87
2019-01-27T11:21:40.223Z,22.63
2019-01-27T11:24:18.672Z,22.37
2019-01-27T11:26:51.489Z,17.63
2019-01-27T11:29:21.262Z,17.40
2019-01-27T11:31:53.832Z,20.47
2019-01-27T11:34:29.660Z,16.73
2019-01-27T11:37:11.576Z,12.70
2019-01-27T11:39:56.287Z,12.03
2019-01-27T11:42:28.793Z,15.60
2019-01-27T11:44:58.571Z,14.03
2019-01-27T11:47:46.471Z,13.93
2019-01-27T11:50:16.248Z,9.57
2019-01-27T11:52:46.020Z,11.63
2019-01-27T11:55:14.173Z,13.43
2019-01-27T11:57:42.420Z,14.50
2019-01-27T12:00:12.468Z,17.10
2019-01-27T12:02:46.523Z,15.23
2019-01-27T12:05:12.015Z,15.03
2019-01-27T12:07:40.225Z,18.50
2019-01-27T12:10:10.115Z,16.83
2019-01-27T12:12:38.291Z,26.20
2019-01-27T12:15:08.050Z,17.17
2019-01-27T12:17:36.280Z,20.97
2019-01-27T12:20:06.042Z,19.57
2019-01-27T12:22:34.182Z,23.20
2019-01-27T12:25:02.342Z,18.63
2019-01-27T12:27:30.484Z,13.23
2019-01-27T12:29:58.980Z,14.70
2019-01-27T12:32:27.278Z,13.53
2019-01-27T12:34:55.416Z,21.27
2019-01-27T12:37:23.619Z,13.60
2019-01-27T12:39:51.787Z,18.00
2019-01-27T12:42:19.931Z,18.47
2019-01-27T12:44:48.228Z,19.23
2019-01-27T12:47:18.024Z,22.00
2019-01-27T12:49:46.233Z,12.53
2019-01-27T12:52:14.413Z,20.17
2019-01-27T12:54:42.617Z,17.43
2019-01-27T12:57:10.752Z,21.63
2019-01-27T12:59:39.098Z,22.57
2019-01-27T13:02:07.256Z,20.17
2019-01-27T13:04:35.776Z,19.77
2019-01-27T13:07:03.916Z,17.20
2019-01-27T13:09:32.127Z,9.57
2019-01-27T13:12:00.265Z,18.10
2019-01-27T13:14:28.408Z,15.50
2019-01-27T13:16:56.634Z,10.90
2019-01-27T13:19:24.777Z,19.80
2019-01-27T13:21:52.924Z,16.93
2019-01-27T13:24:21.184Z,20.53
2019-01-27T13:26:49.314Z,18.43
2019-01-27T13:29:17.448Z,14.23
2019-01-27T13:31:45.618Z,13.03
2019-01-27T13:34:13.931Z,14.93
2019-01-27T13:36:42.099Z,13.90
2019-01-27T13:39:10.549Z,16.47
2019-01-27T13:41:38.690Z,21.33
2019-01-27T13:44:06.888Z,15.27
2019-01-27T13:46:35.032Z,17.57
2019-01-27T13:49:03.182Z,19.53
2019-01-27T13:51:31.307Z,21.73
2019-01-27T13:53:59.488Z,20.57
2019-01-27T13:56:27.627Z,12.03
2019-01-27T13:58:55.860Z,10.40
2019-01-27T14:01:24.041Z,12.70
2019-01-27T14:03:52.176Z,12.67
2019-01-27T14:06:20.322Z,14.17
2019-01-27T14:08:48.494Z,10.90
2019-01-27T14:11:36.061Z,13.57
2019-01-27T14:14:04.217Z,16.20
2019-01-27T14:16:32.364Z,14.07
2019-01-27T14:19:00.512Z,12.53
2019-01-27T14:21:28.671Z,12.03
2019-01-27T14:23:56.819Z,16.97
2019-01-27T14:26:24.947Z,14.07
2019-01-27T14:28:53.183Z,11.13
2019-01-27T14:31:21.244Z,17.63
2019-01-27T14:33:49.492Z,13.27
2019-01-27T14:36:17.656Z,14.57
2019-01-27T14:38:45.795Z,13.17
2019-01-27T14:41:14.019Z,12.27
2019-01-27T14:43:42.279Z,20.33
2019-01-27T14:46:10.483Z,20.90
2019-01-27T14:48:38.849Z,12.60
2019-01-27T14:51:07.017Z,8.70
2019-01-27T14:53:35.158Z,14.07
2019-01-27T14:56:03.289Z,7.57
2019-01-27T14:58:31.447Z,9.87
2019-01-27T15:00:59.591Z,11.70
2019-01-27T15:03:27.723Z,11.00
2019-01-27T15:05:55.896Z,13.27
2019-01-27T15:08:24.027Z,15.17
2019-01-27T15:10:52.159Z,16.43
2019-01-27T15:13:20.328Z,14.23
2019-01-27T15:15:48.466Z,18.27
2019-01-27T15:18:16.600Z,11.30
2019-01-27T15:20:49.109Z,13.13
2019-01-27T15:23:17.239Z,15.03
2019-01-27T15:25:45.376Z,12.90
2019-01-27T15:28:13.540Z,17.20
2019-01-27T15:30:41.675Z,20.40
2019-01-27T15:33:09.818Z,18.17
2019-01-27T15:35:37.982Z,15.83
2019-01-27T15:38:06.120Z,19.10
2019-01-27T15:40:34.252Z,22.30
2019-01-27T15:43:02.424Z,17.93
2019-01-27T15:45:31.229Z,14.27
2019-01-27T15:47:59.361Z,18.17
2019-01-27T15:50:28.591Z,12.57
2019-01-27T15:52:56.725Z,14.47
2019-01-27T15:55:24.859Z,11.93
2019-01-27T15:57:53.031Z,22.70
2019-01-27T16:00:24.782Z,13.20
2019-01-27T16:02:52.936Z,11.40
2019-01-27T16:05:22.256Z,11.13
2019-01-27T16:07:50.452Z,13.40
2019-01-27T16:10:19.564Z,13.50
2019-01-27T16:12:47.730Z,17.47
2019-01-27T16:15:17.215Z,9.43
2019-01-27T16:17:45.350Z,14.47
2019-01-27T16:20:14.993Z,11.00
2019-01-27T16:22:44.762Z,8.20
2019-01-27T16:25:12.907Z,11.50
2019-01-27T16:27:41.074Z,10.37
2019-01-27T16:30:12.471Z,10.00
2019-01-27T16:32:40.724Z,9.57
2019-01-27T16:35:09.969Z,8.67
2019-01-27T16:37:38.095Z,12.00
2019-01-27T16:40:10.767Z,10.57
2019-01-27T16:42:38.935Z,12.07
2019-01-27T16:45:08.699Z,8.27
2019-01-27T16:47:36.827Z,11.07
2019-01-27T16:50:06.635Z,11.40
2019-01-27T16:52:34.774Z,9.00
2019-01-27T16:55:02.899Z,13.00
2019-01-27T16:57:31.113Z,13.07
2019-01-27T16:59:59.195Z,15.17
2019-01-27T17:02:27.335Z,9.47
2019-01-27T17:04:55.504Z,10.20
2019-01-27T17:07:23.639Z,10.30
2019-01-27T17:09:51.770Z,14.30
2019-01-27T17:12:19.935Z,12.97
2019-01-27T17:14:48.191Z,13.93
2019-01-27T17:17:16.324Z,28.63
2019-01-27T17:19:44.622Z,12.30
2019-01-27T17:22:12.721Z,11.67
2019-01-27T17:24:40.853Z,6.80
2019-01-27T17:27:09.014Z,9.40
2019-01-27T17:29:37.175Z,8.93
2019-01-27T17:32:05.319Z,17.77
2019-01-27T17:34:33.492Z,12.17
2019-01-27T17:37:01.628Z,9.43
2019-01-27T17:39:30.708Z,22.10
2019-01-27T17:41:58.968Z,12.70
2019-01-27T17:44:27.099Z,29.83
2019-01-27T17:46:55.235Z,21.07
2019-01-27T17:49:23.518Z,15.93
2019-01-27T17:51:51.654Z,13.60
2019-01-27T17:54:19.783Z,55.23
2019-01-27T17:56:49.599Z,41.53
2019-01-27T17:59:25.435Z,15.00
2019-01-27T18:02:01.226Z,15.03
2019-01-27T18:04:46.412Z,10.53
2019-01-27T18:07:25.462Z,15.27
2019-01-27T18:09:58.033Z,13.47
2019-01-27T18:12:40.178Z,10.40
2019-01-27T18:15:08.315Z,10.27
2019-01-27T18:17:36.448Z,15.77
2019-01-27T18:20:06.244Z,12.57
2019-01-27T18:22:34.651Z,9.37
2019-01-27T18:25:02.772Z,8.60
2019-01-27T18:27:30.931Z,12.63
2019-01-27T18:29:59.065Z,10.90
2019-01-27T18:32:27.208Z,7.27
2019-01-27T18:34:55.384Z,13.53
2019-01-27T18:37:23.504Z,9.30
2019-01-27T18:39:51.627Z,8.97
2019-01-27T18:42:19.803Z,11.23
2019-01-27T18:44:48.097Z,8.60
2019-01-27T18:47:16.231Z,6.53
2019-01-27T18:49:44.383Z,7.43
2019-01-27T18:52:12.528Z,15.93
2019-01-27T18:54:54.232Z,14.17
2019-01-27T18:57:30.079Z,10.90
2019-01-27T18:59:59.882Z,12.90
2019-01-27T19:02:32.801Z,12.80
2019-01-27T19:05:02.639Z,9.53
2019-01-27T19:07:32.439Z,4.53
2019-01-27T19:10:05.097Z,19.97
2019-01-27T19:12:53.008Z,9.90
2019-01-27T19:15:41.075Z,17.07
2019-01-27T19:18:19.887Z,12.03
2019-01-27T19:20:52.694Z,20.57
2019-01-27T19:23:25.259Z,20.40
2019-01-27T19:26:11.863Z,10.33
2019-01-27T19:28:44.702Z,31.47
2019-01-27T19:31:14.463Z,15.40
2019-01-27T19:33:44.316Z,12.30
2019-01-27T19:36:20.204Z,17.87
2019-01-27T19:38:52.743Z,20.17
2019-01-27T19:41:22.674Z,12.07
2019-01-27T19:43:58.464Z,12.50
2019-01-27T19:46:40.377Z,9.97
2019-01-27T19:49:13.102Z,11.93
2019-01-27T19:51:48.712Z,15.03
2019-01-27T19:54:34.837Z,13.13
2019-01-27T19:57:10.505Z,11.47
2019-01-27T19:59:46.280Z,12.63
2019-01-27T20:02:18.968Z,12.53
2019-01-27T20:04:56.589Z,10.23
2019-01-27T20:07:32.032Z,16.33
2019-01-27T20:10:04.865Z,11.60
2019-01-27T20:12:51.239Z,12.30
2019-01-27T20:15:29.944Z,7.93
2019-01-27T20:18:08.823Z,12.33
2019-01-27T20:20:47.740Z,12.70
2019-01-27T20:23:23.552Z,13.97
2019-01-27T20:26:05.455Z,10.23
2019-01-27T20:28:50.454Z,15.30
2019-01-27T20:31:26.308Z,12.93
2019-01-27T20:34:05.112Z,14.07
2019-01-27T20:36:34.915Z,16.53
2019-01-27T20:39:04.698Z,13.10
2019-01-27T20:41:34.758Z,15.70
2019-01-27T20:44:10.665Z,14.20
2019-01-27T20:46:52.475Z,14.33
2019-01-27T20:49:25.055Z,31.47
2019-01-27T20:51:57.852Z,21.53
2019-01-27T20:54:27.624Z,10.00
2019-01-27T20:57:04.076Z,10.67
2019-01-27T20:59:33.905Z,10.57
2019-01-27T21:02:18.692Z,11.17
2019-01-27T21:04:51.231Z,15.30
2019-01-27T21:07:23.706Z,12.83
2019-01-27T21:09:53.612Z,13.93
2019-01-27T21:12:23.376Z,13.67
2019-01-27T21:14:53.197Z,16.87
2019-01-27T21:17:29.070Z,10.67
2019-01-27T21:19:57.397Z,17.92
2019-01-27T21:22:26.477Z,9.33
2019-01-27T21:24:54.727Z,13.87
2019-01-27T21:27:22.895Z,10.43
2019-01-27T21:29:51.271Z,12.47
2019-01-27T21:32:20.081Z,11.80
2019-01-27T21:34:48.406Z,20.17
2019-01-27T21:37:16.531Z,13.10
2019-01-27T21:39:44.659Z,10.73
2019-01-27T21:42:16.109Z,10.67
2019-01-27T21:44:44.266Z,12.10
2019-01-27T21:47:12.412Z,11.10
2019-01-27T21:49:40.593Z,9.93
2019-01-27T21:52:08.719Z,17.97
2019-01-27T21:54:37.105Z,11.03
2019-01-27T21:57:05.327Z,16.30
2019-01-27T21:59:33.686Z,18.10
2019-01-27T22:02:01.787Z,13.83
2019-01-27T22:04:30.092Z,17.67
2019-01-27T22:06:58.290Z,15.37
2019-01-27T22:09:27.486Z,13.40
2019-01-27T22:12:15.920Z,20.08
2019-01-27T22:14:44.113Z,23.37
2019-01-27T22:17:12.373Z,19.33
2019-01-27T22:19:40.801Z,23.90
2019-01-27T22:22:08.939Z,17.67
2019-01-27T22:24:37.150Z,15.00
2019-01-27T22:27:05.315Z,21.37
2019-01-27T22:29:35.525Z,15.00
2019-01-27T22:32:06.564Z,18.97
2019-01-27T22:34:34.727Z,16.00
2019-01-27T22:37:02.935Z,13.10
2019-01-27T22:39:31.071Z,17.90
2019-01-27T22:41:59.239Z,20.93
2019-01-27T22:44:28.076Z,16.37
2019-01-27T22:46:57.479Z,20.50
2019-01-27T22:49:25.647Z,15.43
2019-01-27T22:51:53.787Z,22.63
2019-01-27T22:54:21.916Z,22.90
2019-01-27T22:56:51.324Z,19.20
2019-01-27T22:59:20.648Z,19.73
2019-01-27T23:01:49.710Z,17.97
2019-01-27T23:04:17.855Z,16.83
2019-01-27T23:06:48.328Z,18.60
2019-01-27T23:09:17.812Z,15.00
2019-01-27T23:12:05.528Z,20.90
2019-01-27T23:14:33.686Z,15.17
2019-01-27T23:17:01.811Z,16.57
2019-01-27T23:19:29.963Z,10.77
2019-01-27T23:21:58.406Z,13.57
2019-01-27T23:24:26.535Z,18.60
2019-01-27T23:26:54.621Z,24.87
2019-01-27T23:29:22.763Z,11.07
2019-01-27T23:31:50.897Z,16.30
2019-01-27T23:34:19.075Z,18.13
2019-01-27T23:36:47.206Z,19.43
2019-01-27T23:39:15.340Z,15.93
2019-01-27T23:41:43.510Z,21.20
2019-01-27T23:44:11.646Z,20.33
2019-01-27T23:46:39.780Z,23.73
2019-01-27T23:49:07.987Z,21.90
2019-01-27T23:51:36.075Z,23.30
2019-01-27T23:54:04.203Z,14.57
2019-01-27T23:56:32.366Z,16.47
2019-01-27T23:59:00.839Z,16.80
